WetterOnline ( http://www.wetteronline.de )

Wetter aktuell PLZ Bereich 36404

Aktuelles Wetter: Bad Hersfeld (273m)

6-stündlich | Neueste Meldungen
Ortszeit Temperatur Wetter
Fr, 21.09. 8:00 17.3° C leicht bewölkt
Fr, 21.09. 2:00 14.9° C bewölkt
Do, 20.09. 20:00 21.1° C wolkig
Do, 20.09. 14:00 26.9° C leicht bewölkt
Do, 20.09. 8:00 12.8° C wolkig
Do, 20.09. 2:00 16.6° C wolkig
Mi, 19.09. 20:00 24.8° C wolkig
Mi, 19.09. 14:00 28.8° C leicht bewölkt
Ortszeit Temperatur Wetter
Fr, 21.09. 10:00 23.4° C wolkig
Fr, 21.09. 9:50 23.4° C wolkig
Fr, 21.09. 9:40 22.7° C wolkig
Fr, 21.09. 9:30 23.3° C wolkig
Fr, 21.09. 9:20 23.3° C wolkig
Fr, 21.09. 9:10 22.6° C wolkig
Fr, 21.09. 9:00 21.8° C leicht bewölkt
Fr, 21.09. 8:30 20.2° C wolkenlos
Fr, 21.09. 8:00 17.3° C leicht bewölkt
Fr, 21.09. 7:30 15.5° C leicht bewölkt
Fr, 21.09. 7:00 15.1° C leicht bewölkt
Ortszeit Relative Feuchte Sichtweite
Fr, 21.09. 8:00 67% 16 km
Fr, 21.09. 2:00 74% 17 km
Do, 20.09. 20:00 46% 17 km
Do, 20.09. 14:00 35% 14 km
Do, 20.09. 8:00 90% 9 km
Do, 20.09. 2:00 77% 14 km
Mi, 19.09. 20:00 45% 17 km
Mi, 19.09. 14:00 35% 15 km
Ortszeit Relative Feuchte Sichtweite
Fr, 21.09. 10:00 48% 14 km
Fr, 21.09. 9:50 48% -
Fr, 21.09. 9:40 49% -
Fr, 21.09. 9:30 48% 3.2 km
Fr, 21.09. 9:20 48% -
Fr, 21.09. 9:10 50% -
Fr, 21.09. 9:00 52% 5.0 km
Fr, 21.09. 8:30 57% 10 km
Fr, 21.09. 8:00 67% 16 km
Fr, 21.09. 7:30 73% 14 km
Fr, 21.09. 7:00 71% 14 km
Ortszeit Niederschlagsmenge Niederschlagsart
Fr, 21.09. 8:00 0.0 l/m2 in 12 Std. -
Fr, 21.09. 2:00 0.0 l/m2 in 6 Std. -
Do, 20.09. 20:00 0.0 l/m2 in 12 Std. -
Do, 20.09. 14:00 0.0 l/m2 in 6 Std. -
Do, 20.09. 8:00 0.0 l/m2 in 12 Std. -
Do, 20.09. 2:00 0.0 l/m2 in 6 Std. -
Mi, 19.09. 20:00 0.0 l/m2 in 12 Std. -
Mi, 19.09. 14:00 0.0 l/m2 in 6 Std. -
Ortszeit Niederschlagsmenge Niederschlagsart
Fr, 21.09. 10:00 0.0 l/m2 in 1 Std. -
Fr, 21.09. 9:50 keine Meldung -
Fr, 21.09. 9:40 keine Meldung -
Fr, 21.09. 9:30 0.0 l/m2 in 1 Std. -
Fr, 21.09. 9:20 keine Meldung -
Fr, 21.09. 9:10 keine Meldung -
Fr, 21.09. 9:00 0.0 l/m2 in 1 Std. -
Fr, 21.09. 8:30 0.0 l/m2 in 1 Std. -
Fr, 21.09. 8:00 0.0 l/m2 in 1 Std. -
Fr, 21.09. 7:30 0.0 l/m2 in 1 Std. -
Fr, 21.09. 7:00 0.0 l/m2 in 1 Std. -
Ortszeit Stärke Spitze Richtung
km/h Bft. km/h Grad Sektor
Fr, 21.09. 8:00 13 3 20 210° SW
Fr, 21.09. 2:00 4 1 14 320° NW
Do, 20.09. 20:00 7 2 40 140° SO
Do, 20.09. 14:00 17 3 43 220° SW
Do, 20.09. 8:00 0 0 7 - -
Do, 20.09. 2:00 2 1 20 290° W
Mi, 19.09. 20:00 9 2 44 190° S
Mi, 19.09. 14:00 17 3 33 210° SW
Ortszeit Stärke Spitze Richtung
km/h Bft. km/h Grad Sektor
Fr, 21.09. 10:00 19 3 41 190° S
Fr, 21.09. 9:50 19 3 - 190° S
Fr, 21.09. 9:40 22 4 - 190° S
Fr, 21.09. 9:30 18 3 32 200° S
Fr, 21.09. 9:20 18 3 - 200° S
Fr, 21.09. 9:10 17 3 - 190° S
Fr, 21.09. 9:00 22 4 40 190° S
Fr, 21.09. 8:30 18 3 29 180° S
Fr, 21.09. 8:00 13 3 20 210° SW
Fr, 21.09. 7:30 11 2 14 230° SW
Fr, 21.09. 7:00 9 2 20 220° SW
Ortszeit Untergrenze Bedeckung Gattung
total tief tief mittel hoch
Fr, 21.09. 8:00 2700 m 5/8 1/8 - - -
Fr, 21.09. 2:00 6900 m 7/8 7/8 - - -
Do, 20.09. 20:00 8400 m 8/8 0/8 - - -
Do, 20.09. 14:00 10500 m 7/8 0/8 - - -
Do, 20.09. 8:00 8700 m 8/8 0/8 - - -
Do, 20.09. 2:00 10500 m 8/8 0/8 - - -
Mi, 19.09. 20:00 10500 m 8/8 0/8 - - -
Mi, 19.09. 14:00 1800 m 4/8 - - - -
Ortszeit Bedeckungsgrad in Achtel und Wolkenuntergrenze
Fr, 21.09. 10:00 2(6600m) 6(9000m) 7(10500m)
Fr, 21.09. 9:50 2(6600m) 6(9000m) 7(10500m)
Fr, 21.09. 9:40 3(8100m) 7(10500m) 7(10500m)
Fr, 21.09. 9:30 3(8100m) 7(9000m) 7(10500m)
Fr, 21.09. 9:20 3(8100m) 7(9000m) 7(10500m)
Fr, 21.09. 9:10 4(9000m) 7(10500m) 7(10500m)
Fr, 21.09. 9:00 4(10500m) 5(10500m)
Fr, 21.09. 8:30 keine Wolken
Fr, 21.09. 8:00 1(2700m) 5(10500m)
Fr, 21.09. 7:30 1(3300m) 4(10500m)
Fr, 21.09. 7:00 2(9000m) 5(10500m)
Ortszeit Luftdruck NN (hPa) Tendenz (hPa in 3 Std.)
Fr, 21.09. 8:00 1009 - 2,1
Fr, 21.09. 2:00 1013 - 1,4
Do, 20.09. 20:00 1015 - 1,0
Do, 20.09. 14:00 1017 - 1,6
Do, 20.09. 8:00 1020 + 0,2
Do, 20.09. 2:00 1019 + 0,5
Mi, 19.09. 20:00 1017 + 0,3
Mi, 19.09. 14:00 1017 - 1,0
Ortszeit Luftdruck NN (hPa) Tendenz (hPa in 3 Std.)
Fr, 21.09. 10:00 1007 - 1,4
Fr, 21.09. 9:50 1007 keine Meldung
Fr, 21.09. 9:40 1007 keine Meldung
Fr, 21.09. 9:30 1007 - 1,5
Fr, 21.09. 9:20 1007 keine Meldung
Fr, 21.09. 9:10 1008 keine Meldung
Fr, 21.09. 9:00 1008 - 1,7
Fr, 21.09. 8:30 1008 - 2,0
Fr, 21.09. 8:00 1009 - 2,1
Fr, 21.09. 7:30 1009 - 2,1
Fr, 21.09. 7:00 1009 - 2,1
Ortszeit Schneehöhe (cm)
Fr, 21.09. 8:00 -
Fr, 21.09. 2:00 -
Do, 20.09. 20:00 -
Do, 20.09. 14:00 -
Do, 20.09. 8:00 -
Do, 20.09. 2:00 -
Mi, 19.09. 20:00 -
Mi, 19.09. 14:00 -
Ortszeit Schneehöhe (cm)
Fr, 21.09. 10:00 -
Fr, 21.09. 9:50 -
Fr, 21.09. 9:40 -
Fr, 21.09. 9:30 -
Fr, 21.09. 9:20 -
Fr, 21.09. 9:10 -
Fr, 21.09. 9:00 -
Fr, 21.09. 8:30 -
Fr, 21.09. 8:00 -
Fr, 21.09. 7:30 -
Fr, 21.09. 7:00 -
Link zu dieser Seite / Seite empfehlen

Das Wetter in ...